Ziguinchor, Senegal
Current Conditions -  °F | °C
As of 3:00 PM on Wednesday 22 Oct 2014 (Local Time) from GOGG Reporting Station
Broken Clouds Broken Clouds  
Wind Chill: 95°   Ceiling: 2000
Heat Index: 112°   Visibility: 6mi
Dew Point: 79°   Wind: 9mph
Humidity: 59%   Direction: 240°WSW
Pressure: 29.91"   Gusts: NA
Location:  12.59°N, 16.29°W
Report Text: GOGG 221500Z 24008KT 9999 BKN020TCU 35/26 Q1013
Loading
Personal Weather Stations






























Interactive Weather Map
Tropical Storm Tracking
New forecast layout! Learn more

10-Day Weather Forecast

Advertisements
Track Severe Weather on mobile